メインページ
METAR-TAF:

METAR-TAF

空港 :

NWS Office

ポンペイ島, ミクロネシア

緯度: 06-58N, 経度: 158-13E, 海抜: 39m

現時点の気象観測

当レポートは29分前の07:33(UTC)に作成
の風 8kt、最大18ktの突風を伴う
気温 25°C
湿度 94%
気圧 1009 hPa
視程: 4.8km
高度1600ftの曇り, 積乱雲.
にわか雨

METAR: PTTP 190733Z 10008G18KT 3SM SHRA OVC016CB 25/24 A2980 RMK CB ALQDS MOV W

時間: 19:02 (08:02 UTC)


TAF: 見つかりません

4,000以上の空港の気象観測と天気予報(METAR報とTAF報)

利用可能な観測所は地図上に黄色い丸と赤い丸で示す。

丸の上にカーソルを重ねると観測所名を参照できる。

次にクリックすると気象観測と天気予報を参照できる。

マップの切り替え:黒色「×」印の緑ボタンをクリックして拡大、「-」印の緑ボタンをクリックして縮小、緑色の三角印をクリックして隣りの地図に切り替え


METAR-TAF: